createdAt,value
2023-04-29T00:00:47.842Z,13.49
2023-04-29T00:03:18.554Z,13.48
2023-04-29T00:05:47.751Z,13.44
2023-04-29T00:08:16.483Z,13.41
2023-04-29T00:10:46.859Z,13.41
2023-04-29T00:13:15.392Z,13.44
2023-04-29T00:15:44.016Z,13.49
2023-04-29T00:18:12.637Z,13.50
2023-04-29T00:20:41.507Z,13.47
2023-04-29T00:23:10.090Z,13.44
2023-04-29T00:25:39.422Z,13.38
2023-04-29T00:28:09.920Z,13.20
2023-04-29T00:30:38.490Z,13.20
2023-04-29T00:33:07.132Z,13.17
2023-04-29T00:35:35.671Z,13.09
2023-04-29T00:38:04.352Z,13.09
2023-04-29T00:40:32.954Z,13.00
2023-04-29T00:43:01.457Z,12.82
2023-04-29T00:45:31.615Z,12.87
2023-04-29T00:48:00.155Z,12.86
2023-04-29T00:50:29.667Z,12.86
2023-04-29T00:52:58.183Z,12.85
2023-04-29T00:55:27.820Z,12.88
2023-04-29T00:57:56.470Z,12.89
2023-04-29T01:00:26.524Z,12.86
2023-04-29T01:02:57.450Z,12.80
2023-04-29T01:05:26.148Z,12.70
2023-04-29T01:08:11.028Z,12.61
2023-04-29T01:10:43.802Z,12.62
2023-04-29T01:13:23.919Z,12.61
2023-04-29T01:16:02.088Z,12.63
2023-04-29T01:18:35.425Z,12.65
2023-04-29T01:21:04.214Z,12.65
2023-04-29T01:23:34.136Z,12.65
2023-04-29T01:26:08.464Z,12.63
2023-04-29T01:28:49.156Z,12.58
2023-04-29T01:31:29.184Z,12.43
2023-04-29T01:34:08.173Z,12.47
2023-04-29T01:36:46.907Z,12.41
2023-04-29T01:39:28.814Z,12.37
2023-04-29T01:42:04.967Z,12.40
2023-04-29T01:44:35.704Z,12.32
2023-04-29T01:47:04.956Z,12.36
2023-04-29T01:49:37.514Z,12.35
2023-04-29T01:52:06.178Z,12.32
2023-04-29T01:54:37.262Z,12.21
2023-04-29T01:57:05.917Z,12.31
2023-04-29T01:59:34.350Z,12.32
2023-04-29T02:02:02.830Z,12.33
2023-04-29T02:04:34.027Z,12.34
2023-04-29T02:07:04.225Z,12.34
2023-04-29T02:09:32.788Z,12.34
2023-04-29T02:12:04.817Z,12.37
2023-04-29T02:14:37.929Z,12.27
2023-04-29T02:17:06.668Z,12.35
2023-04-29T02:19:35.244Z,12.39
2023-04-29T02:22:03.699Z,12.36
2023-04-29T02:24:32.176Z,12.34
2023-04-29T02:27:06.018Z,12.37
2023-04-29T02:29:34.801Z,12.31
2023-04-29T02:32:03.411Z,12.29
2023-04-29T02:34:32.385Z,12.21
2023-04-29T02:37:00.868Z,12.21
2023-04-29T02:39:29.352Z,12.23
2023-04-29T02:41:57.827Z,12.22
2023-04-29T02:44:27.843Z,12.19
2023-04-29T02:46:56.325Z,12.20
2023-04-29T02:49:24.829Z,12.13
2023-04-29T02:51:53.536Z,12.18
2023-04-29T02:54:22.097Z,12.18
2023-04-29T02:56:51.008Z,12.19
2023-04-29T02:59:19.499Z,12.21
2023-04-29T03:01:49.403Z,12.14
2023-04-29T03:04:18.133Z,12.24
2023-04-29T03:06:46.944Z,12.23
2023-04-29T03:09:15.451Z,12.23
2023-04-29T03:11:43.993Z,12.24
2023-04-29T03:14:12.772Z,12.18
2023-04-29T03:16:41.334Z,12.24
2023-04-29T03:19:11.289Z,12.21
2023-04-29T03:21:39.783Z,12.17
2023-04-29T03:24:08.297Z,12.20
2023-04-29T03:26:36.749Z,12.18
2023-04-29T03:29:05.154Z,12.17
2023-04-29T03:31:34.393Z,12.18
2023-04-29T03:34:02.991Z,12.16
2023-04-29T03:36:35.290Z,12.11
2023-04-29T03:39:03.700Z,12.13
2023-04-29T03:41:32.273Z,12.20
2023-04-29T03:44:01.262Z,12.24
2023-04-29T03:46:29.970Z,12.24
2023-04-29T03:48:58.551Z,12.25
2023-04-29T03:51:27.567Z,12.19
2023-04-29T03:53:58.136Z,12.17
2023-04-29T03:56:26.864Z,12.17
2023-04-29T03:58:55.474Z,12.09
2023-04-29T04:01:23.897Z,12.07
2023-04-29T04:03:52.601Z,12.08
2023-04-29T04:06:21.550Z,12.03
2023-04-29T04:08:50.017Z,11.99
2023-04-29T04:11:19.940Z,12.02
2023-04-29T04:13:48.376Z,11.94
2023-04-29T04:16:17.041Z,11.96
2023-04-29T04:18:45.594Z,11.93
2023-04-29T04:21:14.642Z,11.93
2023-04-29T04:23:44.264Z,11.93
2023-04-29T04:26:12.880Z,11.97
2023-04-29T04:28:42.921Z,11.98
2023-04-29T04:31:11.887Z,12.00
2023-04-29T04:33:40.463Z,12.01
2023-04-29T04:36:09.360Z,12.03
2023-04-29T04:38:37.794Z,12.06
2023-04-29T04:41:08.933Z,12.03
2023-04-29T04:43:37.529Z,12.02
2023-04-29T04:46:13.680Z,12.10
2023-04-29T04:48:42.426Z,12.14
2023-04-29T04:51:11.673Z,12.16
2023-04-29T04:53:40.826Z,12.17
2023-04-29T04:56:10.046Z,12.17
2023-04-29T04:58:38.489Z,12.15
2023-04-29T05:01:07.132Z,12.18
2023-04-29T05:03:37.216Z,12.24
2023-04-29T05:06:05.993Z,12.25
2023-04-29T05:08:34.490Z,12.36
2023-04-29T05:11:02.935Z,12.37
2023-04-29T05:13:31.536Z,12.45
2023-04-29T05:16:00.043Z,12.49
2023-04-29T05:18:28.528Z,12.53
2023-04-29T05:21:00.276Z,12.56
2023-04-29T05:23:29.398Z,12.52
2023-04-29T05:25:58.002Z,12.57
2023-04-29T05:28:28.108Z,12.60
2023-04-29T05:30:56.944Z,12.67
2023-04-29T05:33:25.574Z,12.71
2023-04-29T05:35:54.150Z,12.74
2023-04-29T05:38:29.348Z,12.79
2023-04-29T05:40:58.243Z,12.73
2023-04-29T05:43:27.716Z,12.83
2023-04-29T05:45:56.464Z,12.89
2023-04-29T05:48:25.126Z,12.89
2023-04-29T05:50:54.431Z,12.97
2023-04-29T05:53:27.179Z,13.03
2023-04-29T05:55:55.772Z,13.13
2023-04-29T05:58:24.342Z,13.35
2023-04-29T06:00:53.071Z,13.48
2023-04-29T06:03:21.790Z,13.59
2023-04-29T06:05:50.709Z,13.65
2023-04-29T06:08:19.945Z,13.70
2023-04-29T06:10:52.142Z,13.81
2023-04-29T06:13:21.302Z,13.92
2023-04-29T06:15:50.020Z,13.92
2023-04-29T06:18:18.489Z,14.03
2023-04-29T06:20:47.075Z,14.05
2023-04-29T06:23:15.601Z,14.07
2023-04-29T06:25:44.449Z,14.08
2023-04-29T06:28:14.266Z,14.11
2023-04-29T06:30:42.756Z,14.15
2023-04-29T06:33:11.819Z,14.20
2023-04-29T06:35:41.648Z,14.24
2023-04-29T06:38:10.169Z,14.22
2023-04-29T06:40:38.742Z,14.25
2023-04-29T06:43:07.361Z,14.25
2023-04-29T06:45:37.537Z,14.24
2023-04-29T06:48:06.597Z,14.31
2023-04-29T06:50:35.149Z,14.29
2023-04-29T06:53:03.733Z,14.31
2023-04-29T06:55:35.275Z,14.32
2023-04-29T06:58:06.248Z,14.25
2023-04-29T07:00:34.860Z,14.30
2023-04-29T07:03:05.071Z,14.38
2023-04-29T07:05:33.797Z,14.38
2023-04-29T07:08:02.690Z,14.40
2023-04-29T07:10:31.139Z,14.40
2023-04-29T07:13:00.544Z,14.42
2023-04-29T07:15:30.548Z,14.50
2023-04-29T07:17:59.126Z,14.47
2023-04-29T07:20:28.971Z,14.47
2023-04-29T07:22:57.522Z,14.42
2023-04-29T07:25:26.061Z,14.44
2023-04-29T07:27:54.507Z,14.49
2023-04-29T07:30:23.601Z,14.52
2023-04-29T07:32:52.083Z,14.53
2023-04-29T07:35:21.098Z,14.54
2023-04-29T07:37:51.006Z,14.52
2023-04-29T07:40:19.572Z,14.55
2023-04-29T07:42:50.999Z,14.52
2023-04-29T07:45:22.145Z,14.52
2023-04-29T07:47:50.635Z,14.53
2023-04-29T07:50:19.378Z,14.50
2023-04-29T07:52:47.880Z,14.45
2023-04-29T07:55:18.117Z,14.41
2023-04-29T07:57:46.840Z,14.43
2023-04-29T08:00:15.932Z,14.44
2023-04-29T08:02:45.059Z,14.44
2023-04-29T08:05:13.948Z,14.46
2023-04-29T08:07:42.667Z,14.47
2023-04-29T08:10:11.770Z,14.49
2023-04-29T08:12:41.781Z,14.51
2023-04-29T08:15:11.005Z,14.51
2023-04-29T08:17:39.603Z,14.55
2023-04-29T08:20:09.591Z,14.50
2023-04-29T08:22:38.224Z,14.44
2023-04-29T08:25:08.944Z,14.38
2023-04-29T08:27:37.527Z,14.37
2023-04-29T08:30:09.210Z,14.38
2023-04-29T08:32:37.743Z,14.36
2023-04-29T08:35:06.922Z,14.34
2023-04-29T08:37:35.455Z,14.26
2023-04-29T08:40:04.042Z,14.33
2023-04-29T08:42:37.261Z,14.37
2023-04-29T08:45:08.744Z,14.40
2023-04-29T08:47:38.404Z,14.38
2023-04-29T08:50:08.839Z,14.36
2023-04-29T08:52:37.417Z,14.30
2023-04-29T08:55:07.184Z,14.37
2023-04-29T08:57:40.101Z,14.37
2023-04-29T09:00:12.000Z,14.42
2023-04-29T09:02:46.619Z,14.41
2023-04-29T09:05:15.409Z,14.46
2023-04-29T09:07:44.237Z,14.46
2023-04-29T09:10:13.403Z,14.43
2023-04-29T09:12:42.005Z,14.41
2023-04-29T09:15:12.715Z,14.38
2023-04-29T09:17:45.462Z,14.40
2023-04-29T09:20:29.537Z,14.38
2023-04-29T09:22:59.999Z,14.40
2023-04-29T09:25:28.976Z,14.41
2023-04-29T09:27:57.968Z,14.45
2023-04-29T09:30:28.017Z,14.48
2023-04-29T09:33:08.436Z,14.54
2023-04-29T09:35:37.756Z,14.60
2023-04-29T09:38:14.753Z,14.63
2023-04-29T09:40:58.218Z,14.62
2023-04-29T09:43:28.409Z,14.69
2023-04-29T09:45:58.576Z,14.82
2023-04-29T09:48:34.015Z,14.87
2023-04-29T09:51:04.261Z,14.97
2023-04-29T09:53:33.588Z,15.01
2023-04-29T09:56:03.937Z,15.00
2023-04-29T09:58:38.006Z,15.01
2023-04-29T10:01:08.810Z,15.04
2023-04-29T10:03:39.201Z,15.10
2023-04-29T10:06:08.768Z,15.12
2023-04-29T10:08:37.521Z,15.14
2023-04-29T10:11:06.522Z,15.20
2023-04-29T10:13:38.793Z,15.24
2023-04-29T10:16:17.359Z,15.28
2023-04-29T10:18:51.342Z,15.28
2023-04-29T10:21:23.761Z,15.19
2023-04-29T10:23:55.434Z,15.13
2023-04-29T10:26:27.890Z,15.05
2023-04-29T10:28:57.950Z,15.14
2023-04-29T10:31:30.908Z,15.29
2023-04-29T10:34:01.962Z,15.39
2023-04-29T10:36:31.788Z,15.44
2023-04-29T10:39:03.787Z,15.53
2023-04-29T10:41:38.230Z,15.63
2023-04-29T10:44:06.854Z,15.79
2023-04-29T10:46:38.408Z,16.01
2023-04-29T10:49:08.041Z,16.17
2023-04-29T10:51:40.933Z,16.26
2023-04-29T10:54:11.843Z,16.41
2023-04-29T10:56:42.317Z,16.57
2023-04-29T10:59:16.315Z,16.81
2023-04-29T11:01:50.815Z,16.98
2023-04-29T11:04:19.902Z,17.25
2023-04-29T11:06:50.003Z,17.31
2023-04-29T11:09:23.448Z,17.48
2023-04-29T11:12:03.066Z,17.72
2023-04-29T11:14:33.932Z,17.75
2023-04-29T11:17:06.327Z,17.71
2023-04-29T11:19:36.155Z,17.71
2023-04-29T11:22:13.807Z,17.88
2023-04-29T11:24:57.323Z,18.01
2023-04-29T11:27:27.764Z,18.12
2023-04-29T11:29:59.062Z,18.41
2023-04-29T11:32:30.188Z,18.45
2023-04-29T11:35:09.798Z,18.50
2023-04-29T11:37:38.595Z,18.75
2023-04-29T11:40:08.975Z,18.89
2023-04-29T11:42:37.859Z,18.98
2023-04-29T11:45:07.117Z,18.76
2023-04-29T11:47:37.573Z,18.85
2023-04-29T11:50:08.091Z,18.86
2023-04-29T11:52:38.893Z,18.99
2023-04-29T11:55:10.197Z,19.17
2023-04-29T11:57:39.478Z,19.49
2023-04-29T12:00:12.002Z,19.53
2023-04-29T12:02:47.233Z,19.58
2023-04-29T12:05:17.633Z,19.59
2023-04-29T12:07:46.544Z,19.51
2023-04-29T12:10:15.029Z,19.43
2023-04-29T12:12:45.660Z,19.48
2023-04-29T12:15:14.957Z,19.49
2023-04-29T12:17:46.764Z,19.53
2023-04-29T12:20:15.610Z,19.59
2023-04-29T12:22:45.268Z,19.66
2023-04-29T12:25:17.121Z,19.72
2023-04-29T12:27:45.704Z,19.79
2023-04-29T12:30:14.371Z,19.81
2023-04-29T12:32:42.978Z,19.80
2023-04-29T12:35:20.386Z,19.77
2023-04-29T12:37:52.143Z,19.62
2023-04-29T12:40:21.389Z,19.50
2023-04-29T12:42:50.162Z,19.41
2023-04-29T12:45:29.309Z,19.36
2023-04-29T12:47:59.955Z,19.37
2023-04-29T12:50:34.576Z,19.33
2023-04-29T12:53:03.755Z,19.39
2023-04-29T12:55:34.871Z,19.44
2023-04-29T12:58:03.761Z,19.32
2023-04-29T13:00:32.777Z,19.27
2023-04-29T13:03:01.671Z,19.23
2023-04-29T13:05:30.354Z,19.15
2023-04-29T13:08:00.292Z,19.14
2023-04-29T13:10:29.704Z,19.12
2023-04-29T13:12:58.599Z,19.19
2023-04-29T13:15:27.415Z,19.22
2023-04-29T13:17:56.413Z,19.25
2023-04-29T13:20:25.052Z,19.31
2023-04-29T13:22:53.467Z,19.18
2023-04-29T13:25:23.396Z,19.36
2023-04-29T13:27:52.165Z,19.55
2023-04-29T13:30:20.952Z,19.77
2023-04-29T13:32:53.814Z,19.92
2023-04-29T13:35:25.189Z,20.14
2023-04-29T13:37:53.664Z,20.26
2023-04-29T13:40:27.576Z,20.21
2023-04-29T13:43:05.598Z,20.20
2023-04-29T13:45:39.830Z,20.02
2023-04-29T13:48:21.083Z,19.99
2023-04-29T13:51:17.482Z,19.82
2023-04-29T13:57:02.759Z,20.05
2023-04-29T14:02:21.493Z,20.32
2023-04-29T14:04:28.308Z,20.34
2023-04-29T14:06:57.960Z,20.21
2023-04-29T14:09:26.593Z,20.11
2023-04-29T14:11:56.508Z,19.84
2023-04-29T14:14:24.975Z,19.63
2023-04-29T14:16:53.451Z,19.75
2023-04-29T14:19:21.931Z,19.96
2023-04-29T14:21:50.414Z,20.01
2023-04-29T14:24:18.816Z,20.06
2023-04-29T14:26:47.301Z,20.21
2023-04-29T14:29:17.208Z,20.14
2023-04-29T14:31:45.941Z,20.21
2023-04-29T14:34:14.727Z,20.24
2023-04-29T14:36:45.394Z,20.31
2023-04-29T14:39:15.085Z,20.06
2023-04-29T14:41:43.672Z,19.87
2023-04-29T14:44:14.812Z,19.88
2023-04-29T14:46:44.777Z,19.63
2023-04-29T14:49:15.582Z,19.57
2023-04-29T14:51:44.073Z,19.52
2023-04-29T14:54:12.817Z,19.66
2023-04-29T14:56:41.430Z,19.85
2023-04-29T14:59:10.220Z,20.12
2023-04-29T15:01:40.025Z,20.27
2023-04-29T15:04:10.238Z,20.10
2023-04-29T15:06:39.107Z,20.11
2023-04-29T15:09:08.132Z,19.79
2023-04-29T15:11:36.743Z,19.64
2023-04-29T15:14:05.271Z,19.40
2023-04-29T15:16:33.744Z,19.43
2023-04-29T15:19:02.391Z,19.36
2023-04-29T15:21:33.361Z,19.09
2023-04-29T15:24:03.348Z,18.85
2023-04-29T15:26:31.898Z,18.09
2023-04-29T15:29:00.450Z,17.73
2023-04-29T15:31:30.680Z,17.33
2023-04-29T15:33:59.400Z,16.89
2023-04-29T15:36:32.887Z,16.95
2023-04-29T15:39:01.436Z,17.28
2023-04-29T15:41:30.156Z,17.28
2023-04-29T15:43:59.235Z,16.99
2023-04-29T15:46:28.960Z,17.30
2023-04-29T15:48:57.456Z,17.18
2023-04-29T15:51:26.461Z,16.81
2023-04-29T15:53:56.793Z,16.64
2023-04-29T15:56:26.088Z,16.36
2023-04-29T15:58:54.855Z,16.53
2023-04-29T16:01:23.880Z,16.45
2023-04-29T16:03:52.583Z,16.45
2023-04-29T16:06:23.820Z,16.48
2023-04-29T16:08:52.915Z,16.37
2023-04-29T16:11:23.248Z,16.51
2023-04-29T16:13:52.048Z,16.45
2023-04-29T16:16:21.057Z,16.30
2023-04-29T16:18:49.724Z,16.22
2023-04-29T16:21:18.842Z,16.15
2023-04-29T16:23:48.144Z,16.15
2023-04-29T16:26:17.848Z,15.92
2023-04-29T16:28:47.937Z,15.89
2023-04-29T16:31:17.732Z,15.77
2023-04-29T16:33:46.584Z,15.51
2023-04-29T16:36:15.489Z,15.51
2023-04-29T16:38:44.575Z,15.40
2023-04-29T16:41:13.257Z,15.32
2023-04-29T16:43:41.964Z,15.08
2023-04-29T16:46:12.549Z,15.08
2023-04-29T16:48:42.525Z,15.07
2023-04-29T16:51:11.390Z,15.17
2023-04-29T16:53:39.894Z,15.24
2023-04-29T16:56:08.791Z,15.58
2023-04-29T16:58:37.518Z,15.31
2023-04-29T17:01:08.135Z,15.22
2023-04-29T17:03:38.727Z,15.08
2023-04-29T17:06:07.924Z,15.04
2023-04-29T17:08:37.049Z,14.93
2023-04-29T17:11:06.614Z,14.64
2023-04-29T17:13:35.355Z,14.52
2023-04-29T17:16:04.222Z,14.44
2023-04-29T17:18:33.669Z,14.53
2023-04-29T17:21:04.290Z,14.35
2023-04-29T17:23:33.337Z,14.14
2023-04-29T17:26:05.558Z,14.15
2023-04-29T17:28:34.813Z,14.05
2023-04-29T17:31:03.884Z,14.06
2023-04-29T17:33:35.761Z,13.98
2023-04-29T17:36:08.731Z,13.98
2023-04-29T17:38:38.178Z,13.87
2023-04-29T17:41:06.937Z,13.79
2023-04-29T17:43:35.810Z,13.72
2023-04-29T17:46:04.459Z,13.78
2023-04-29T17:48:32.973Z,14.21
2023-04-29T17:51:01.484Z,14.03
2023-04-29T17:53:33.479Z,13.87
2023-04-29T17:56:02.113Z,13.55
2023-04-29T17:58:30.692Z,13.55
2023-04-29T18:00:59.486Z,13.53
2023-04-29T18:03:30.515Z,13.55
2023-04-29T18:05:59.086Z,13.52
2023-04-29T18:08:28.256Z,13.48
2023-04-29T18:10:58.182Z,13.51
2023-04-29T18:13:27.311Z,13.40
2023-04-29T18:15:56.197Z,13.43
2023-04-29T18:18:24.643Z,13.35
2023-04-29T18:20:53.743Z,13.33
2023-04-29T18:23:22.932Z,13.27
2023-04-29T18:25:51.366Z,13.21
2023-04-29T18:28:25.386Z,13.18
2023-04-29T18:30:55.678Z,13.21
2023-04-29T18:33:26.776Z,13.23
2023-04-29T18:35:55.969Z,13.20
2023-04-29T18:38:24.731Z,13.17
2023-04-29T18:40:53.137Z,13.18
2023-04-29T18:43:28.482Z,13.21
2023-04-29T18:45:57.308Z,13.11
2023-04-29T18:48:27.991Z,13.02
2023-04-29T18:50:59.572Z,13.03
2023-04-29T18:53:28.320Z,12.93
2023-04-29T18:55:56.854Z,12.92
2023-04-29T18:58:27.690Z,12.84
2023-04-29T19:00:57.958Z,12.77
2023-04-29T19:03:27.396Z,12.77
2023-04-29T19:05:55.986Z,12.58
2023-04-29T19:08:24.770Z,12.56
2023-04-29T19:10:54.379Z,12.62
2023-04-29T19:13:22.793Z,12.54
2023-04-29T19:15:54.760Z,12.47
2023-04-29T19:18:24.032Z,12.40
2023-04-29T19:20:54.287Z,12.43
2023-04-29T19:23:22.928Z,12.51
2023-04-29T19:25:54.374Z,12.53
2023-04-29T19:28:22.937Z,12.50
2023-04-29T19:30:52.916Z,12.53
2023-04-29T19:33:22.104Z,12.50
2023-04-29T19:35:51.201Z,12.62
2023-04-29T19:38:20.016Z,12.51
2023-04-29T19:40:49.206Z,12.55
2023-04-29T19:43:18.243Z,12.61
2023-04-29T19:45:46.894Z,12.73
2023-04-29T19:48:17.067Z,12.71
2023-04-29T19:50:45.627Z,12.66
2023-04-29T19:53:14.527Z,12.74
2023-04-29T19:55:43.454Z,12.68
2023-04-29T19:58:12.047Z,12.65
2023-04-29T20:00:40.785Z,12.66
2023-04-29T20:03:09.672Z,12.61
2023-04-29T20:05:41.527Z,12.68
2023-04-29T20:08:10.753Z,12.64
2023-04-29T20:10:39.238Z,12.52
2023-04-29T20:13:08.120Z,12.52
2023-04-29T20:15:37.826Z,12.42
2023-04-29T20:18:06.963Z,12.45
2023-04-29T20:20:42.712Z,12.42
2023-04-29T20:23:11.585Z,12.37
2023-04-29T20:25:40.331Z,12.26
2023-04-29T20:28:09.396Z,12.78
2023-04-29T20:30:38.177Z,12.60
2023-04-29T20:33:08.670Z,12.51
2023-04-29T20:35:37.981Z,12.43
2023-04-29T20:38:08.750Z,12.41
2023-04-29T20:40:37.335Z,12.39
2023-04-29T20:43:06.022Z,12.41
2023-04-29T20:45:34.475Z,12.41
2023-04-29T20:48:04.361Z,12.40
2023-04-29T20:50:33.117Z,12.38
2023-04-29T20:53:02.316Z,12.39
2023-04-29T20:55:33.028Z,12.35
2023-04-29T20:58:01.753Z,12.35
2023-04-29T21:00:30.450Z,12.28
2023-04-29T21:02:59.149Z,12.30
2023-04-29T21:05:27.824Z,12.33
2023-04-29T21:07:56.318Z,12.30
2023-04-29T21:10:25.093Z,12.35
2023-04-29T21:12:55.669Z,12.36
2023-04-29T21:15:24.647Z,12.32
2023-04-29T21:17:53.212Z,12.30
2023-04-29T21:20:24.815Z,12.26
2023-04-29T21:22:55.893Z,12.21
2023-04-29T21:25:26.769Z,12.25
2023-04-29T21:27:56.891Z,12.27
2023-04-29T21:30:26.618Z,12.28
2023-04-29T21:32:55.372Z,12.29
2023-04-29T21:35:25.287Z,12.23
2023-04-29T21:37:53.905Z,12.04
2023-04-29T21:40:23.140Z,12.09
2023-04-29T21:42:52.520Z,12.19
2023-04-29T21:45:23.247Z,12.13
2023-04-29T21:47:52.351Z,12.03
2023-04-29T21:50:21.423Z,11.89
2023-04-29T21:52:50.885Z,11.87
2023-04-29T21:55:19.931Z,11.90
2023-04-29T21:57:48.340Z,11.89
2023-04-29T22:00:33.262Z,11.90
2023-04-29T22:03:04.056Z,11.77
2023-04-29T22:05:33.485Z,11.65
2023-04-29T22:08:03.498Z,11.63
2023-04-29T22:10:32.333Z,11.57
2023-04-29T22:13:01.359Z,11.53
2023-04-29T22:15:30.045Z,11.59
2023-04-29T22:17:58.681Z,11.57
2023-04-29T22:20:29.277Z,11.56
2023-04-29T22:22:58.428Z,11.59
2023-04-29T22:25:27.071Z,11.56
2023-04-29T22:27:55.737Z,11.57
2023-04-29T22:30:24.318Z,11.56
2023-04-29T22:32:52.980Z,11.51
2023-04-29T22:35:21.682Z,11.49
2023-04-29T22:37:52.055Z,11.56
2023-04-29T22:40:20.746Z,11.54
2023-04-29T22:42:49.343Z,11.57
2023-04-29T22:45:18.439Z,11.43
2023-04-29T22:47:47.263Z,11.45
2023-04-29T22:50:16.134Z,11.40
2023-04-29T22:52:44.925Z,11.37
2023-04-29T22:55:15.441Z,11.41
2023-04-29T22:57:44.038Z,11.34
2023-04-29T23:00:14.583Z,11.35
2023-04-29T23:02:43.609Z,11.33
2023-04-29T23:05:12.163Z,11.33
2023-04-29T23:07:41.454Z,11.34
2023-04-29T23:10:10.677Z,11.33
2023-04-29T23:12:40.685Z,11.28
2023-04-29T23:15:10.144Z,11.29
2023-04-29T23:17:40.005Z,11.34
2023-04-29T23:20:09.830Z,11.33
2023-04-29T23:22:38.350Z,11.29
2023-04-29T23:25:07.480Z,11.28
2023-04-29T23:27:36.096Z,11.28
2023-04-29T23:30:07.620Z,11.19
2023-04-29T23:32:36.923Z,11.35
2023-04-29T23:35:06.384Z,11.23
2023-04-29T23:37:35.093Z,11.28
2023-04-29T23:40:05.083Z,11.23
2023-04-29T23:42:33.897Z,11.29
2023-04-29T23:45:02.618Z,11.29
2023-04-29T23:47:32.953Z,11.21
2023-04-29T23:50:01.510Z,11.22
2023-04-29T23:52:30.338Z,11.26
2023-04-29T23:54:58.857Z,11.23
2023-04-29T23:57:28.076Z,11.18
2023-04-29T23:59:57.318Z,11.21
